createdAt,value
2022-12-08T00:01:53.820Z,11.16
2022-12-08T00:04:21.014Z,11.13
2022-12-08T00:06:48.171Z,11.11
2022-12-08T00:09:20.070Z,11.13
2022-12-08T00:11:49.390Z,11.08
2022-12-08T00:14:16.589Z,11.09
2022-12-08T00:16:43.893Z,11.05
2022-12-08T00:19:11.192Z,11.10
2022-12-08T00:21:38.289Z,11.13
2022-12-08T00:24:05.830Z,11.10
2022-12-08T00:26:32.910Z,11.02
2022-12-08T00:29:01.489Z,11.04
2022-12-08T00:31:28.680Z,10.98
2022-12-08T00:33:56.290Z,11.02
2022-12-08T00:36:23.352Z,10.88
2022-12-08T00:38:50.472Z,10.88
2022-12-08T00:41:20.911Z,10.89
2022-12-08T00:43:47.989Z,10.92
2022-12-08T00:46:16.543Z,10.95
2022-12-08T00:48:43.650Z,10.93
2022-12-08T00:51:10.750Z,10.94
2022-12-08T00:53:37.851Z,11.00
2022-12-08T00:56:05.393Z,10.97
2022-12-08T00:58:32.454Z,11.01
2022-12-08T01:00:59.633Z,11.04
2022-12-08T01:03:28.342Z,11.05
2022-12-08T01:05:55.549Z,11.03
2022-12-08T01:08:22.701Z,11.04
2022-12-08T01:10:49.909Z,11.07
2022-12-08T01:13:17.030Z,11.09
2022-12-08T01:15:44.150Z,11.10
2022-12-08T01:18:11.248Z,11.10
2022-12-08T01:20:39.749Z,11.09
2022-12-08T01:23:06.850Z,11.07
2022-12-08T01:25:34.973Z,11.15
2022-12-08T01:28:02.030Z,11.11
2022-12-08T01:30:29.244Z,11.09
2022-12-08T01:32:57.490Z,11.11
2022-12-08T01:35:24.611Z,11.11
2022-12-08T01:37:53.213Z,11.12
2022-12-08T01:40:20.369Z,11.13
2022-12-08T01:42:47.539Z,11.11
2022-12-08T01:45:25.110Z,11.13
2022-12-08T01:47:56.947Z,11.14
2022-12-08T01:50:25.169Z,11.16
2022-12-08T01:52:57.611Z,11.26
2022-12-08T01:55:31.372Z,11.25
2022-12-08T01:58:08.069Z,11.23
2022-12-08T02:00:35.176Z,11.24
2022-12-08T02:03:04.936Z,11.22
2022-12-08T02:05:36.850Z,11.47
2022-12-08T02:08:08.965Z,11.39
2022-12-08T02:10:39.692Z,11.37
2022-12-08T02:13:11.329Z,11.32
2022-12-08T02:15:47.970Z,11.32
2022-12-08T02:18:37.432Z,11.53
2022-12-08T02:21:13.012Z,11.90
2022-12-08T02:23:54.275Z,11.99
2022-12-08T02:26:55.374Z,12.25
2022-12-08T02:30:01.066Z,12.46
2022-12-08T02:33:08.845Z,12.69
2022-12-08T02:35:46.316Z,12.67
2022-12-08T02:38:27.239Z,12.59
2022-12-08T02:41:13.597Z,12.74
2022-12-08T02:43:45.558Z,12.71
2022-12-08T02:46:20.188Z,12.75
2022-12-08T02:48:48.270Z,12.82
2022-12-08T02:51:16.879Z,12.92
2022-12-08T02:53:45.136Z,13.02
2022-12-08T02:56:27.897Z,12.87
2022-12-08T02:59:14.316Z,12.79
2022-12-08T03:02:10.160Z,12.90
2022-12-08T03:04:46.697Z,12.85
2022-12-08T03:07:25.160Z,12.90
2022-12-08T03:10:00.579Z,12.76
2022-12-08T03:12:36.126Z,12.73
2022-12-08T03:15:11.804Z,12.72
2022-12-08T03:17:46.087Z,12.75
2022-12-08T03:20:19.959Z,12.70
2022-12-08T03:22:52.900Z,12.61
2022-12-08T03:25:23.340Z,12.67
2022-12-08T03:27:52.440Z,12.60
2022-12-08T03:30:20.004Z,12.65
2022-12-08T03:32:54.980Z,12.66
2022-12-08T03:35:27.300Z,12.66
2022-12-08T03:38:04.859Z,12.67
2022-12-08T03:40:32.075Z,12.69
2022-12-08T03:42:59.280Z,12.69
2022-12-08T03:45:26.701Z,12.68
2022-12-08T03:47:53.759Z,12.50
2022-12-08T03:50:20.980Z,12.41
2022-12-08T03:52:48.100Z,12.28
2022-12-08T03:55:17.300Z,12.21
2022-12-08T03:57:44.706Z,12.32
2022-12-08T04:00:16.347Z,12.34
2022-12-08T04:02:43.691Z,12.35
2022-12-08T04:05:10.947Z,12.40
2022-12-08T04:07:38.124Z,12.49
2022-12-08T04:10:06.933Z,12.29
2022-12-08T04:12:35.800Z,12.25
2022-12-08T04:15:02.974Z,12.36
2022-12-08T04:17:30.022Z,12.40
2022-12-08T04:19:57.121Z,12.58
2022-12-08T04:22:24.241Z,12.55
2022-12-08T04:24:51.600Z,12.62
2022-12-08T04:27:18.880Z,12.65
2022-12-08T04:29:47.461Z,12.65
2022-12-08T04:32:14.680Z,12.48
2022-12-08T04:34:41.741Z,12.57
2022-12-08T04:37:08.900Z,12.43
2022-12-08T04:39:36.219Z,12.45
2022-12-08T04:42:03.420Z,12.44
2022-12-08T04:44:30.499Z,12.44
2022-12-08T04:46:59.206Z,12.57
2022-12-08T04:49:26.490Z,12.50
2022-12-08T04:51:53.521Z,12.50
2022-12-08T04:54:20.659Z,12.51
2022-12-08T04:56:47.840Z,12.53
2022-12-08T04:59:14.900Z,12.41
2022-12-08T05:01:42.142Z,12.34
2022-12-08T05:04:10.839Z,12.38
2022-12-08T05:06:37.921Z,12.44
2022-12-08T05:09:05.102Z,12.38
2022-12-08T05:11:32.204Z,12.41
2022-12-08T05:13:59.299Z,12.36
2022-12-08T05:16:26.565Z,12.31
2022-12-08T05:18:53.740Z,12.31
2022-12-08T05:21:22.321Z,12.35
2022-12-08T05:23:49.379Z,12.25
2022-12-08T05:26:16.539Z,12.25
2022-12-08T05:28:44.219Z,12.28
2022-12-08T05:31:12.789Z,12.35
2022-12-08T05:33:40.740Z,12.32
2022-12-08T05:36:09.040Z,12.26
2022-12-08T05:38:37.837Z,12.18
2022-12-08T05:41:06.319Z,12.23
2022-12-08T05:43:33.433Z,12.32
2022-12-08T05:46:00.619Z,12.32
2022-12-08T05:48:28.004Z,12.35
2022-12-08T05:50:56.322Z,12.13
2022-12-08T05:53:23.602Z,12.17
2022-12-08T05:55:52.212Z,12.25
2022-12-08T05:58:21.900Z,12.02
2022-12-08T06:00:50.002Z,12.06
2022-12-08T06:03:18.982Z,12.04
2022-12-08T06:05:47.860Z,12.16
2022-12-08T06:08:15.243Z,12.17
2022-12-08T06:10:44.601Z,12.16
2022-12-08T06:13:13.181Z,12.22
2022-12-08T06:15:41.600Z,12.15
2022-12-08T06:18:11.043Z,12.22
2022-12-08T06:20:38.360Z,12.06
2022-12-08T06:23:05.423Z,11.97
2022-12-08T06:25:32.577Z,12.00
2022-12-08T06:27:59.761Z,12.07
2022-12-08T06:30:28.481Z,12.12
2022-12-08T06:32:55.664Z,12.13
2022-12-08T06:35:22.867Z,12.13
2022-12-08T06:37:50.022Z,12.23
2022-12-08T06:40:17.405Z,12.34
2022-12-08T06:42:44.990Z,12.25
2022-12-08T06:45:14.023Z,12.40
2022-12-08T06:47:43.161Z,12.43
2022-12-08T06:50:12.094Z,12.56
2022-12-08T06:52:49.309Z,12.51
2022-12-08T06:55:50.760Z,12.45
2022-12-08T06:58:10.980Z,12.43
2022-12-08T07:00:38.321Z,12.35
2022-12-08T07:03:07.360Z,12.38
2022-12-08T07:05:34.561Z,12.30
2022-12-08T07:08:02.076Z,12.25
2022-12-08T07:10:30.080Z,12.19
2022-12-08T07:12:57.221Z,11.97
2022-12-08T07:15:24.321Z,12.11
2022-12-08T07:17:56.309Z,11.92
2022-12-08T07:20:28.356Z,12.01
2022-12-08T07:22:55.601Z,12.05
2022-12-08T07:25:23.046Z,12.23
2022-12-08T07:27:50.520Z,12.26
2022-12-08T07:30:17.840Z,12.22
2022-12-08T07:32:45.523Z,12.22
2022-12-08T07:35:13.241Z,12.37
2022-12-08T07:37:42.161Z,12.32
2022-12-08T07:40:11.140Z,12.20
2022-12-08T07:42:38.224Z,12.15
2022-12-08T07:45:07.060Z,12.20
2022-12-08T07:47:34.185Z,12.38
2022-12-08T07:50:01.332Z,12.39
2022-12-08T07:52:28.541Z,12.19
2022-12-08T07:54:57.122Z,12.08
2022-12-08T07:57:24.223Z,12.24
2022-12-08T07:59:51.260Z,12.05
2022-12-08T08:02:26.939Z,12.09
2022-12-08T08:04:54.477Z,12.30
2022-12-08T08:07:22.063Z,12.21
2022-12-08T08:09:49.271Z,12.30
2022-12-08T08:12:33.517Z,12.27
2022-12-08T08:15:01.944Z,12.28
2022-12-08T08:17:29.714Z,12.24
2022-12-08T08:19:57.517Z,12.25
2022-12-08T08:22:25.514Z,12.26
2022-12-08T08:24:53.255Z,12.27
2022-12-08T08:27:21.852Z,12.43
2022-12-08T08:29:48.893Z,12.61
2022-12-08T08:32:16.010Z,12.50
2022-12-08T08:34:43.989Z,12.18
2022-12-08T08:37:11.293Z,12.15
2022-12-08T08:39:38.571Z,12.13
2022-12-08T08:42:05.913Z,13.11
2022-12-08T08:44:34.512Z,13.54
2022-12-08T08:47:01.650Z,13.97
2022-12-08T08:49:28.873Z,14.30
2022-12-08T08:51:56.052Z,14.62
2022-12-08T08:54:23.193Z,14.98
2022-12-08T08:56:50.417Z,14.85
2022-12-08T08:59:17.510Z,14.61
2022-12-08T09:01:46.548Z,14.15
2022-12-08T09:04:13.845Z,13.38
2022-12-08T09:06:41.063Z,13.12
2022-12-08T09:09:08.250Z,12.72
2022-12-08T09:11:35.470Z,12.28
2022-12-08T09:14:02.790Z,11.68
2022-12-08T09:16:30.302Z,11.92
2022-12-08T09:18:59.073Z,11.90
2022-12-08T09:21:26.830Z,11.88
2022-12-08T09:23:56.774Z,11.79
2022-12-08T09:26:25.270Z,11.71
2022-12-08T09:28:54.310Z,11.79
2022-12-08T09:31:23.003Z,11.77
2022-12-08T09:33:51.151Z,11.79
2022-12-08T09:36:20.631Z,11.80
2022-12-08T09:38:48.155Z,11.80
2022-12-08T09:41:20.958Z,11.84
2022-12-08T09:44:07.258Z,11.84
2022-12-08T09:46:36.089Z,11.80
2022-12-08T09:49:11.658Z,11.70
2022-12-08T09:51:45.191Z,11.70
2022-12-08T09:54:20.440Z,11.74
2022-12-08T09:56:52.344Z,11.73
2022-12-08T09:59:26.009Z,11.79
2022-12-08T10:01:54.951Z,11.82
2022-12-08T10:04:27.273Z,11.83
2022-12-08T10:07:04.108Z,11.81
2022-12-08T10:09:40.190Z,11.90
2022-12-08T10:12:20.078Z,11.82
2022-12-08T10:14:58.168Z,11.76
2022-12-08T10:17:30.828Z,11.79
2022-12-08T10:20:03.054Z,11.91
2022-12-08T10:22:38.749Z,11.92
2022-12-08T10:25:18.060Z,11.97
2022-12-08T10:27:49.516Z,11.91
2022-12-08T10:30:19.439Z,11.81
2022-12-08T10:32:50.479Z,11.91
2022-12-08T10:35:21.105Z,11.87
2022-12-08T10:37:58.161Z,11.89
2022-12-08T10:40:29.216Z,11.90
2022-12-08T10:42:59.465Z,11.86
2022-12-08T10:45:30.475Z,11.77
2022-12-08T10:48:02.147Z,11.81
2022-12-08T10:50:33.049Z,11.90
2022-12-08T10:53:11.461Z,11.91
2022-12-08T10:55:43.193Z,11.97
2022-12-08T10:58:32.167Z,12.41
2022-12-08T11:01:05.424Z,12.66
2022-12-08T11:03:37.790Z,12.71
2022-12-08T11:06:15.171Z,12.69
2022-12-08T11:08:55.830Z,12.61
2022-12-08T11:11:38.820Z,12.57
2022-12-08T11:14:08.702Z,12.77
2022-12-08T11:16:36.648Z,12.83
2022-12-08T11:19:05.667Z,12.76
2022-12-08T11:21:38.068Z,12.71
2022-12-08T11:24:23.008Z,12.79
2022-12-08T11:26:54.268Z,12.75
2022-12-08T11:29:22.162Z,12.80
2022-12-08T11:31:55.198Z,12.76
2022-12-08T11:34:34.556Z,12.77
2022-12-08T11:37:05.207Z,12.83
2022-12-08T11:39:44.417Z,12.87
2022-12-08T11:42:20.573Z,13.17
2022-12-08T11:44:56.752Z,13.39
2022-12-08T11:47:30.862Z,13.46
2022-12-08T11:50:16.643Z,13.60
2022-12-08T11:52:50.928Z,13.67
2022-12-08T11:55:37.057Z,13.43
2022-12-08T11:58:18.870Z,13.68
2022-12-08T12:00:46.646Z,13.87
2022-12-08T12:03:25.340Z,13.95
2022-12-08T12:06:38.286Z,13.50
2022-12-08T12:09:16.853Z,13.82
2022-12-08T12:12:01.926Z,13.98
2022-12-08T12:14:55.086Z,13.72
2022-12-08T12:17:40.175Z,13.39
2022-12-08T12:20:17.925Z,13.84
2022-12-08T12:22:51.846Z,14.21
2022-12-08T12:25:23.047Z,14.51
2022-12-08T12:27:57.525Z,14.61
2022-12-08T12:30:27.855Z,14.69
2022-12-08T12:32:59.374Z,14.76
2022-12-08T12:35:34.504Z,14.46
2022-12-08T12:38:08.106Z,14.66
2022-12-08T12:40:42.268Z,14.56
2022-12-08T12:43:30.054Z,14.39
2022-12-08T12:46:33.599Z,14.44
2022-12-08T12:49:34.083Z,14.56
2022-12-08T12:52:01.382Z,14.57
2022-12-08T12:54:29.481Z,14.59
2022-12-08T12:57:15.942Z,17.59
2022-12-08T12:59:53.229Z,16.86
2022-12-08T13:02:26.213Z,16.19
2022-12-08T13:05:02.166Z,15.82
2022-12-08T13:07:33.193Z,15.42
2022-12-08T13:10:11.283Z,15.18
2022-12-08T13:12:38.656Z,14.94
2022-12-08T13:15:18.423Z,14.63
2022-12-08T13:17:49.333Z,13.77
2022-12-08T13:20:22.322Z,13.74
2022-12-08T13:23:25.144Z,13.84
2022-12-08T13:26:20.923Z,13.78
2022-12-08T13:29:17.575Z,13.79
2022-12-08T13:31:51.230Z,13.31
2022-12-08T13:34:36.784Z,13.20
2022-12-08T13:37:22.238Z,13.14
2022-12-08T13:39:53.898Z,13.16
2022-12-08T13:42:30.662Z,13.20
2022-12-08T13:45:22.292Z,13.26
2022-12-08T13:48:22.120Z,13.28
2022-12-08T13:52:47.980Z,13.27
2022-12-08T13:57:05.124Z,13.16
2022-12-08T13:59:33.402Z,13.00
2022-12-08T14:02:05.622Z,12.87
2022-12-08T14:04:54.437Z,12.79
2022-12-08T14:07:21.703Z,12.73
2022-12-08T14:09:49.703Z,12.72
2022-12-08T14:12:22.065Z,12.58
2022-12-08T14:15:08.323Z,12.54
2022-12-08T14:17:35.643Z,12.53
2022-12-08T14:20:23.343Z,12.57
2022-12-08T14:22:52.545Z,12.55
2022-12-08T14:25:20.607Z,12.47
2022-12-08T14:27:49.160Z,12.53
2022-12-08T14:30:21.086Z,12.54
2022-12-08T14:32:50.783Z,12.50
2022-12-08T14:35:24.485Z,12.57
2022-12-08T14:37:56.495Z,12.58
2022-12-08T14:40:28.142Z,12.49
2022-12-08T14:43:13.444Z,12.54
2022-12-08T14:45:49.064Z,12.51
2022-12-08T14:48:23.467Z,12.43
2022-12-08T14:51:04.566Z,12.41
2022-12-08T14:53:40.501Z,12.36
2022-12-08T14:56:16.548Z,12.33
2022-12-08T14:58:43.988Z,12.28
2022-12-08T15:01:15.362Z,12.27
2022-12-08T15:03:50.436Z,12.22
2022-12-08T15:06:21.477Z,12.19
2022-12-08T15:08:55.184Z,12.21
2022-12-08T15:11:31.439Z,12.18
2022-12-08T15:13:59.427Z,12.21
2022-12-08T15:16:30.506Z,12.19
2022-12-08T15:19:17.745Z,12.14
2022-12-08T15:21:47.729Z,12.11
2022-12-08T15:24:16.565Z,12.12
2022-12-08T15:26:47.523Z,12.11
2022-12-08T15:29:21.264Z,12.09
2022-12-08T15:31:48.944Z,12.06
2022-12-08T15:34:16.202Z,12.03
2022-12-08T15:36:43.383Z,12.02
2022-12-08T15:39:29.023Z,11.99
2022-12-08T15:41:56.182Z,12.04
2022-12-08T15:44:23.384Z,12.03
2022-12-08T15:46:51.483Z,12.00
2022-12-08T15:49:21.382Z,11.94
2022-12-08T15:51:49.422Z,11.92
2022-12-08T15:54:18.427Z,11.91
2022-12-08T15:57:17.847Z,11.87
2022-12-08T15:59:37.054Z,11.83
2022-12-08T16:02:04.360Z,11.85
2022-12-08T16:07:25.071Z,11.84
2022-12-08T16:09:55.353Z,11.84
2022-12-08T16:12:24.967Z,11.83
2022-12-08T16:17:40.882Z,11.83
2022-12-08T16:20:13.468Z,11.84
2022-12-08T16:22:54.532Z,11.83
2022-12-08T16:25:46.299Z,11.81
2022-12-08T16:28:52.254Z,11.81
2022-12-08T16:31:07.569Z,11.84
2022-12-08T16:33:38.083Z,11.84
2022-12-08T16:36:05.642Z,11.79
2022-12-08T16:38:35.146Z,11.81
2022-12-08T16:41:04.474Z,11.79
2022-12-08T16:43:32.558Z,11.79
2022-12-08T16:46:00.221Z,11.76
2022-12-08T16:48:27.703Z,11.76
2022-12-08T16:50:54.939Z,11.72
2022-12-08T16:53:23.096Z,11.68
2022-12-08T16:55:51.044Z,11.69
2022-12-08T16:58:19.802Z,11.69
2022-12-08T17:00:47.096Z,11.67
2022-12-08T17:03:15.881Z,11.69
2022-12-08T17:05:43.623Z,11.67
2022-12-08T17:08:10.940Z,11.65
2022-12-08T17:10:40.185Z,11.64
2022-12-08T17:13:08.761Z,11.62
2022-12-08T17:15:37.395Z,11.63
2022-12-08T17:18:05.525Z,11.64
2022-12-08T17:20:32.763Z,11.65
2022-12-08T17:22:59.922Z,11.64
2022-12-08T17:25:27.626Z,11.64
2022-12-08T17:27:55.243Z,11.66
2022-12-08T17:30:22.383Z,11.66
2022-12-08T17:32:51.386Z,11.66
2022-12-08T17:35:18.982Z,11.69
2022-12-08T17:37:46.202Z,11.70
2022-12-08T17:40:13.583Z,11.71
2022-12-08T17:42:40.869Z,11.71
2022-12-08T17:45:09.163Z,11.74
2022-12-08T17:47:37.122Z,11.74
2022-12-08T17:50:08.678Z,11.75
2022-12-08T17:52:36.907Z,11.74
2022-12-08T17:55:05.001Z,11.75
2022-12-08T17:57:32.323Z,11.76
2022-12-08T17:59:59.396Z,11.80
2022-12-08T18:02:26.683Z,11.79
2022-12-08T18:04:53.996Z,11.81
2022-12-08T18:07:22.596Z,11.80
2022-12-08T18:09:49.837Z,11.80
2022-12-08T18:12:22.258Z,11.84
2022-12-08T18:14:51.036Z,11.83
2022-12-08T18:17:18.361Z,11.85
2022-12-08T18:19:46.537Z,11.89
2022-12-08T18:22:13.738Z,11.85
2022-12-08T18:24:43.741Z,11.83
2022-12-08T18:27:10.877Z,11.87
2022-12-08T18:29:38.157Z,11.88
2022-12-08T18:32:05.402Z,11.87
2022-12-08T18:34:32.611Z,11.86
2022-12-08T18:36:59.833Z,11.87
2022-12-08T18:39:31.699Z,11.86
2022-12-08T18:42:01.098Z,11.85
2022-12-08T18:44:29.336Z,11.83
2022-12-08T18:46:56.961Z,11.83
2022-12-08T18:49:24.270Z,11.77
2022-12-08T18:51:51.618Z,11.77
2022-12-08T18:54:21.982Z,11.79
2022-12-08T18:56:51.572Z,11.80
2022-12-08T18:59:20.173Z,11.79
2022-12-08T19:01:47.275Z,11.79
2022-12-08T19:04:31.233Z,11.75
2022-12-08T19:07:00.817Z,11.71
2022-12-08T19:09:28.173Z,11.75
2022-12-08T19:11:56.071Z,11.74
2022-12-08T19:14:28.193Z,11.72
2022-12-08T19:16:56.668Z,11.74
2022-12-08T19:19:23.918Z,11.77
2022-12-08T19:21:51.073Z,11.76
2022-12-08T19:24:18.815Z,11.81
2022-12-08T19:26:46.413Z,11.81
2022-12-08T19:29:14.392Z,11.82
2022-12-08T19:31:43.117Z,11.83
2022-12-08T19:34:11.979Z,11.83
2022-12-08T19:36:39.339Z,11.83
2022-12-08T19:39:06.694Z,11.83
2022-12-08T19:41:35.970Z,11.85
2022-12-08T19:44:03.185Z,11.85
2022-12-08T19:46:32.568Z,11.85
2022-12-08T19:49:03.360Z,11.84
2022-12-08T19:51:30.660Z,11.85
2022-12-08T19:53:57.809Z,11.85
2022-12-08T19:56:24.940Z,11.85
2022-12-08T19:58:52.901Z,13.32
2022-12-08T20:01:20.177Z,16.50
2022-12-08T20:03:47.464Z,17.46
2022-12-08T20:06:19.018Z,15.74
2022-12-08T20:08:50.354Z,14.94
2022-12-08T20:11:19.380Z,14.36
2022-12-08T20:13:46.689Z,13.90
2022-12-08T20:16:15.766Z,13.46
2022-12-08T20:18:43.751Z,13.43
2022-12-08T20:21:12.610Z,13.10
2022-12-08T20:23:41.388Z,12.86
2022-12-08T20:26:12.000Z,12.70
2022-12-08T20:28:39.740Z,12.57
2022-12-08T20:31:07.075Z,12.46
2022-12-08T20:33:34.531Z,12.35
2022-12-08T20:36:05.143Z,12.30
2022-12-08T20:38:32.352Z,12.20
2022-12-08T20:41:01.059Z,12.13
2022-12-08T20:43:28.742Z,12.10
2022-12-08T20:45:55.905Z,12.05
2022-12-08T20:48:23.065Z,12.02
2022-12-08T20:50:51.069Z,12.04
2022-12-08T20:53:18.437Z,12.04
2022-12-08T20:55:45.733Z,12.00
2022-12-08T20:58:14.466Z,11.98
2022-12-08T21:00:42.634Z,11.97
2022-12-08T21:03:09.994Z,11.96
2022-12-08T21:05:37.694Z,11.95
2022-12-08T21:08:05.595Z,11.96
2022-12-08T21:10:36.791Z,11.98
2022-12-08T21:13:06.493Z,12.04
2022-12-08T21:15:35.646Z,12.08
2022-12-08T21:18:03.058Z,12.08
2022-12-08T21:20:30.469Z,12.15
2022-12-08T21:22:57.902Z,12.16
2022-12-08T21:25:25.265Z,12.16
2022-12-08T21:27:52.614Z,12.22
2022-12-08T21:30:20.276Z,12.20
2022-12-08T21:32:49.059Z,11.82
2022-12-08T21:35:16.744Z,12.07
2022-12-08T21:37:43.909Z,12.17
2022-12-08T21:40:13.192Z,12.22
2022-12-08T21:42:40.650Z,12.23
2022-12-08T21:45:10.048Z,12.23
2022-12-08T21:47:37.703Z,12.23
2022-12-08T21:50:09.312Z,12.18
2022-12-08T21:52:38.543Z,12.16
2022-12-08T21:55:07.622Z,12.16
2022-12-08T21:57:35.317Z,12.17
2022-12-08T22:00:02.644Z,12.16
2022-12-08T22:02:29.977Z,12.16
2022-12-08T22:04:57.543Z,12.13
2022-12-08T22:07:26.624Z,12.15
2022-12-08T22:09:54.216Z,12.08
2022-12-08T22:12:21.531Z,12.07
2022-12-08T22:14:48.640Z,12.03
2022-12-08T22:17:15.925Z,12.00
2022-12-08T22:19:43.659Z,11.96
2022-12-08T22:22:10.956Z,11.92
2022-12-08T22:24:39.787Z,11.84
2022-12-08T22:27:07.107Z,11.75
2022-12-08T22:29:34.475Z,11.72
2022-12-08T22:32:01.669Z,11.63
2022-12-08T22:34:29.082Z,11.57
2022-12-08T22:36:56.305Z,11.52
2022-12-08T22:39:23.437Z,11.46
2022-12-08T22:41:51.988Z,11.41
2022-12-08T22:44:19.138Z,11.37
2022-12-08T22:46:46.561Z,11.35
2022-12-08T22:49:13.962Z,11.29
2022-12-08T22:51:41.238Z,11.24
2022-12-08T22:54:10.753Z,11.14
2022-12-08T22:56:38.495Z,11.08
2022-12-08T22:59:07.911Z,11.02
2022-12-08T23:01:35.114Z,11.02
2022-12-08T23:04:03.120Z,11.01
2022-12-08T23:06:31.156Z,10.97
2022-12-08T23:08:59.409Z,10.94
2022-12-08T23:11:31.877Z,10.91
2022-12-08T23:13:59.721Z,10.86
2022-12-08T23:16:28.796Z,10.82
2022-12-08T23:18:56.540Z,10.80
2022-12-08T23:21:23.962Z,10.78
2022-12-08T23:23:51.091Z,10.80
2022-12-08T23:26:21.179Z,10.80
2022-12-08T23:28:48.728Z,10.74
2022-12-08T23:31:17.014Z,10.80
2022-12-08T23:33:46.264Z,10.82
2022-12-08T23:36:15.519Z,10.72
2022-12-08T23:38:43.298Z,10.76
2022-12-08T23:41:12.679Z,10.76
2022-12-08T23:43:44.359Z,10.76
2022-12-08T23:46:12.189Z,10.75
2022-12-08T23:48:40.543Z,10.73
2022-12-08T23:51:10.123Z,10.70
2022-12-08T23:53:37.782Z,10.68
2022-12-08T23:56:08.366Z,10.71
2022-12-08T23:58:36.645Z,10.70
